Time;durP1;ratioP1;P1;durP2;ratioP2;P2;SDS_P1;SDS_P2;PMS_P1;PMS_P2;Temp;Humidity;BMP_temperature;BMP_pressure;BME280_temperature;BME280_humidity;BME280_pressure;Samples;Min_cycle;Max_cycle;Signal;HPM_P1;HPM_P2
2021/12/15 00:00:09;;;;;;;68.52;44.53;;;20.30;87.40;;;;;;1791632;80;21594;-79
2021/12/15 00:02:42;;;;;;;73.65;45.40;;;20.30;87.50;;;;;;1764275;81;21217;-79
2021/12/15 00:05:20;;;;;;;66.75;45.40;;;20.30;87.60;;;;;;1791568;80;21168;-79
2021/12/15 00:07:46;;;;;;;67.72;46.53;;;20.30;87.80;;;;;;1764339;81;22248;-79
2021/12/15 00:10:17;;;;;;;66.25;44.18;;;20.30;87.60;;;;;;1763972;81;21094;-79
2021/12/15 00:12:49;;;;;;;66.75;45.23;;;20.30;87.70;;;;;;1787400;80;21140;-79
2021/12/15 00:15:22;;;;;;;67.75;44.42;;;20.40;87.70;;;;;;1748194;81;22309;-79
2021/12/15 00:17:54;;;;;;;64.72;42.53;;;20.40;87.60;;;;;;1799345;78;22320;-79
2021/12/15 00:20:26;;;;;;;61.60;42.88;;;20.40;87.60;;;;;;1755308;81;21232;-79
2021/12/15 00:22:58;;;;;;;63.42;42.85;;;20.40;87.50;;;;;;1797364;78;21122;-79
2021/12/15 00:25:31;;;;;;;61.20;41.80;;;20.40;87.40;;;;;;1775562;79;21131;-79
2021/12/15 00:28:02;;;;;;;58.83;41.53;;;20.50;87.60;;;;;;1822674;78;21628;-80
2021/12/15 00:30:33;;;;;;;59.75;40.67;;;20.50;87.30;;;;;;1826673;77;21202;-80
2021/12/15 00:33:06;;;;;;;60.78;40.75;;;20.60;87.60;;;;;;1778997;78;21145;-72
2021/12/15 00:35:38;;;;;;;68.47;42.65;;;20.60;87.40;;;;;;1768565;80;21948;-72
2021/12/15 00:38:09;;;;;;;63.00;41.08;;;20.70;87.00;;;;;;1793164;80;21264;-70
2021/12/15 00:40:40;;;;;;;54.98;38.23;;;20.70;86.90;;;;;;1768293;81;21185;-73
2021/12/15 00:43:11;;;;;;;60.65;39.30;;;20.80;86.90;;;;;;1794499;80;21093;-70
2021/12/15 00:45:43;;;;;;;59.23;40.08;;;20.80;86.70;;;;;;1767466;81;21184;-72
2021/12/15 00:48:15;;;;;;;59.10;40.55;;;20.90;86.90;;;;;;1754941;81;21691;-71
2021/12/15 00:50:47;;;;;;;55.90;39.15;;;21.00;86.70;;;;;;1795927;80;21181;-71
2021/12/15 00:53:19;;;;;;;56.15;39.63;;;21.00;86.50;;;;;;1755185;80;21653;-71
2021/12/15 00:55:49;;;;;;;60.05;39.35;;;21.10;86.40;;;;;;1811909;78;21123;-71
2021/12/15 00:58:20;;;;;;;53.90;37.98;;;21.20;86.30;;;;;;1762874;81;21727;-71
2021/12/15 01:00:53;;;;;;;53.15;37.42;;;21.30;87.00;;;;;;1804301;78;21115;-73
2021/12/15 01:03:25;;;;;;;53.23;36.55;;;21.40;85.80;;;;;;1785524;79;21094;-72
2021/12/15 01:06:02;;;;;;;42.67;30.48;;;21.40;85.40;;;;;;1837399;78;21166;-71
2021/12/15 01:08:33;;;;;;;42.50;30.85;;;21.50;84.90;;;;;;1834853;76;21281;-71
2021/12/15 01:11:13;;;;;;;40.25;27.35;;;21.80;84.60;;;;;;1836478;76;21147;-72
2021/12/15 01:21:20;;;;;;;34.25;23.83;;;22.30;82.20;;;;;;1832965;78;21096;-72
2021/12/15 01:23:51;;;;;;;32.17;22.87;;;22.40;81.80;;;;;;1798284;78;21672;-72
2021/12/15 01:26:22;;;;;;;30.97;22.62;;;22.50;81.40;;;;;;1765863;79;21699;-71
2021/12/15 01:28:52;;;;;;;33.67;22.45;;;22.60;80.50;;;;;;1748720;81;21678;-72
2021/12/15 01:31:23;;;;;;;32.35;22.93;;;22.70;80.50;;;;;;1795648;78;21160;-72
2021/12/15 01:33:54;;;;;;;29.85;22.73;;;22.70;80.30;;;;;;1779480;80;21169;-71
2021/12/15 01:36:25;;;;;;;32.90;21.57;;;22.80;80.20;;;;;;1792726;80;21178;-72
2021/12/15 01:38:56;;;;;;;35.70;22.35;;;22.80;79.90;;;;;;1803119;78;21676;-72
2021/12/15 01:41:27;;;;;;;30.75;21.30;;;22.90;79.60;;;;;;1828305;78;21216;-72
2021/12/15 01:49:11;;;;;;;29.32;20.85;;;23.10;79.10;;;;;;1828846;77;21125;-70
2021/12/15 01:51:44;;;;;;;34.58;22.75;;;23.10;79.00;;;;;;1841422;77;21075;-70
2021/12/15 01:54:15;;;;;;;31.27;21.27;;;23.10;78.90;;;;;;1835062;77;21237;-72
2021/12/15 01:56:46;;;;;;;29.80;21.65;;;23.20;78.80;;;;;;1851668;77;21134;-73
2021/12/15 01:59:19;;;;;;;32.58;22.67;;;23.30;78.60;;;;;;1839050;77;21528;-73
2021/12/15 02:01:50;;;;;;;34.00;21.12;;;23.30;78.40;;;;;;1841246;77;21202;-72
2021/12/15 02:04:22;;;;;;;33.85;22.00;;;23.30;78.40;;;;;;1841941;77;21245;-72
2021/12/15 02:06:52;;;;;;;28.25;20.37;;;23.40;78.30;;;;;;1843702;77;21130;-72
2021/12/15 02:10:01;;;;;;;34.08;23.20;;;23.40;78.30;;;;;;1846289;77;21091;-73
2021/12/15 02:11:58;;;;;;;30.65;21.77;;;23.40;78.40;;;;;;1832618;77;21784;-73
2021/12/15 02:14:31;;;;;;;33.18;21.48;;;23.50;78.30;;;;;;1843070;77;21143;-72
2021/12/15 02:17:02;;;;;;;33.75;22.05;;;23.50;78.10;;;;;;1844692;77;21126;-70
2021/12/15 02:19:33;;;;;;;34.23;23.30;;;23.60;78.20;;;;;;1845658;77;21130;-71
2021/12/15 02:22:04;;;;;;;36.98;24.63;;;23.60;78.10;;;;;;1843061;77;21619;-71
2021/12/15 02:24:37;;;;;;;33.90;23.10;;;23.60;79.00;;;;;;1842337;77;21131;-72
2021/12/15 02:27:14;;;;;;;30.68;22.32;;;23.70;78.10;;;;;;1834495;77;21201;-72
2021/12/15 02:29:44;;;;;;;28.35;18.70;;;23.70;78.00;;;;;;1841313;77;21115;-72
2021/12/15 02:35:07;;;;;;;40.95;21.70;;;23.80;77.40;;;;;;1834458;77;21212;-71
2021/12/15 02:37:18;;;;;;;38.85;18.70;;;23.90;77.00;;;;;;1836230;77;21701;-72
2021/12/15 02:39:49;;;;;;;32.58;17.27;;;23.90;76.30;;;;;;1803624;78;21211;-72
2021/12/15 02:42:22;;;;;;;30.32;18.37;;;24.00;76.00;;;;;;1798277;79;21158;-73
2021/12/15 02:44:52;;;;;;;24.55;18.20;;;24.00;75.90;;;;;;1792396;79;21196;-72
2021/12/15 02:47:26;;;;;;;29.12;18.12;;;24.10;76.20;;;;;;1790840;79;21154;-71
2021/12/15 02:49:58;;;;;;;23.73;17.75;;;24.10;76.40;;;;;;1780127;79;21610;-73
2021/12/15 02:52:29;;;;;;;27.27;17.80;;;24.20;75.20;;;;;;1813338;77;21259;-72
2021/12/15 02:55:00;;;;;;;26.85;18.23;;;24.20;74.70;;;;;;1758196;80;21680;-71
2021/12/15 02:57:30;;;;;;;23.15;17.50;;;24.30;74.80;;;;;;1808721;78;21091;-71
2021/12/15 03:00:15;;;;;;;24.15;17.00;;;24.30;74.60;;;;;;1770204;80;21146;-71
2021/12/15 03:07:59;;;;;;;19.82;15.03;;;24.40;74.10;;;;;;1796365;78;21267;-69
2021/12/15 03:18:14;;;;;;;22.07;16.73;;;24.70;73.40;;;;;;1769776;80;21260;-73
2021/12/15 03:20:48;;;;;;;23.85;17.07;;;24.80;73.70;;;;;;1819396;77;21599;-71
2021/12/15 03:23:23;;;;;;;22.17;15.23;;;24.80;73.10;;;;;;1860356;76;21690;-72
2021/12/15 03:25:56;;;;;;;22.20;16.95;;;24.90;72.80;;;;;;1860629;76;21247;-71
2021/12/15 03:36:11;;;;;;;23.50;16.12;;;25.20;71.90;;;;;;1862430;75;21179;-72
2021/12/15 03:38:42;;;;;;;24.47;16.00;;;25.30;71.70;;;;;;1871148;74;21129;-72
2021/12/15 03:41:14;;;;;;;24.32;16.57;;;25.40;71.40;;;;;;1861399;75;21457;-70
2021/12/15 03:43:44;;;;;;;23.42;16.30;;;25.40;71.50;;;;;;1867169;76;21178;-71
2021/12/15 03:46:17;;;;;;;22.27;15.38;;;25.50;71.20;;;;;;1855320;76;21146;-72
2021/12/15 03:48:48;;;;;;;19.67;15.25;;;25.60;70.60;;;;;;1858346;76;21226;-71
2021/12/15 03:51:20;;;;;;;20.88;14.25;;;25.70;69.90;;;;;;1863702;76;21543;-72
2021/12/15 03:53:50;;;;;;;19.05;14.75;;;25.80;70.00;;;;;;1859532;76;21248;-72
2021/12/15 03:56:21;;;;;;;24.60;17.20;;;25.90;69.90;;;;;;1863110;75;21130;-70
2021/12/15 03:58:56;;;;;;;20.05;15.65;;;26.00;69.60;;;;;;1864229;76;21185;-72
2021/12/15 04:01:27;;;;;;;21.50;14.75;;;26.10;69.20;;;;;;1862342;76;21140;-71
2021/12/15 04:03:58;;;;;;;20.05;13.00;;;26.20;68.60;;;;;;1854409;75;21185;-72
2021/12/15 04:06:31;;;;;;;19.75;13.70;;;26.40;68.20;;;;;;1865365;75;21154;-72
2021/12/15 04:09:06;;;;;;;20.12;14.38;;;26.40;68.00;;;;;;1857369;76;21145;-70
2021/12/15 04:11:41;;;;;;;18.32;13.38;;;26.50;67.20;;;;;;1866447;75;21584;-73
2021/12/15 04:14:19;;;;;;;23.85;13.83;;;26.60;67.00;;;;;;1863937;75;21233;-73
2021/12/15 04:16:58;;;;;;;19.73;14.80;;;26.70;66.30;;;;;;1861666;75;21217;-74
2021/12/15 04:19:20;;;;;;;23.25;15.60;;;26.80;66.30;;;;;;1862000;75;21314;-74
2021/12/15 04:21:51;;;;;;;18.07;13.80;;;26.90;67.00;;;;;;1868569;76;21213;-72
2021/12/15 04:24:26;;;;;;;18.52;14.18;;;27.00;65.30;;;;;;1861123;75;21155;-73
2021/12/15 04:26:59;;;;;;;23.92;14.40;;;27.10;64.90;;;;;;1861275;76;21139;-72
2021/12/15 04:29:31;;;;;;;18.67;14.40;;;27.20;64.90;;;;;;1868619;76;21158;-72
2021/12/15 04:32:07;;;;;;;27.32;15.15;;;27.20;64.90;;;;;;1868929;75;21197;-72
2021/12/15 04:34:38;;;;;;;17.12;13.78;;;27.30;64.10;;;;;;1873162;75;21149;-71
2021/12/15 04:37:09;;;;;;;20.08;14.23;;;27.30;64.20;;;;;;1871583;76;21154;-73
2021/12/15 04:39:40;;;;;;;16.97;13.55;;;27.30;64.10;;;;;;1880064;76;21162;-70
2021/12/15 04:42:11;;;;;;;20.43;13.50;;;27.40;62.90;;;;;;1874081;76;21202;-71
2021/12/15 04:44:42;;;;;;;20.43;13.10;;;27.50;62.70;;;;;;1871123;76;21146;-70
2021/12/15 04:47:15;;;;;;;17.50;13.43;;;27.60;62.30;;;;;;1855355;76;21277;-71
2021/12/15 04:49:51;;;;;;;16.07;13.20;;;27.60;61.90;;;;;;1851052;76;21197;-71
2021/12/15 04:52:24;;;;;;;18.70;14.78;;;27.70;61.50;;;;;;1850934;76;21716;-71
2021/12/15 04:54:58;;;;;;;20.08;13.80;;;27.80;62.10;;;;;;1868354;76;21700;-71
2021/12/15 04:57:30;;;;;;;16.75;13.85;;;27.80;61.30;;;;;;1877494;76;21079;-71
2021/12/15 05:00:01;;;;;;;15.45;12.03;;;27.90;61.50;;;;;;1866728;76;21158;-73
2021/12/15 05:02:32;;;;;;;16.62;13.20;;;27.90;60.40;;;;;;1868616;75;21769;-73
2021/12/15 05:05:05;;;;;;;18.82;13.72;;;28.00;60.40;;;;;;1860870;76;21193;-74
2021/12/15 05:07:36;;;;;;;17.32;13.53;;;28.10;59.90;;;;;;1863600;76;21182;-73
2021/12/15 05:10:08;;;;;;;18.35;13.90;;;28.20;60.10;;;;;;1865136;76;21095;-71
2021/12/15 05:12:40;;;;;;;21.93;13.65;;;28.40;59.70;;;;;;1850094;75;21606;-70
2021/12/15 05:15:11;;;;;;;15.88;12.18;;;28.50;58.80;;;;;;1851866;77;21220;-72
2021/12/15 05:17:42;;;;;;;13.75;11.35;;;28.70;59.50;;;;;;1854045;76;21187;-70
2021/12/15 05:20:14;;;;;;;12.58;10.20;;;28.70;58.40;;;;;;1856441;76;21246;-71
2021/12/15 05:22:45;;;;;;;14.83;11.38;;;28.80;57.70;;;;;;1868176;76;21599;-71
2021/12/15 05:25:16;;;;;;;19.12;12.43;;;28.70;57.50;;;;;;1853939;76;21253;-71
2021/12/15 05:27:47;;;;;;;15.45;12.35;;;28.80;58.40;;;;;;1859776;75;21232;-72
2021/12/15 05:30:19;;;;;;;14.58;11.43;;;28.90;57.70;;;;;;1858519;76;21208;-71
2021/12/15 05:32:50;;;;;;;13.58;11.18;;;28.90;57.30;;;;;;1868547;75;21220;-71
2021/12/15 05:35:23;;;;;;;16.40;11.88;;;29.00;56.50;;;;;;1832238;76;21694;-71
2021/12/15 05:37:56;;;;;;;14.65;11.53;;;29.00;56.20;;;;;;1818104;77;21183;-71
2021/12/15 05:40:28;;;;;;;15.72;11.85;;;28.90;56.70;;;;;;1818230;79;21188;-71
2021/12/15 05:43:00;;;;;;;14.78;11.18;;;28.90;56.20;;;;;;1817416;77;21147;-71
2021/12/15 05:45:33;;;;;;;15.18;12.03;;;28.90;56.10;;;;;;1828569;77;22082;-72
2021/12/15 05:48:06;;;;;;;13.93;11.30;;;29.00;56.10;;;;;;1833031;77;21551;-70
2021/12/15 05:50:37;;;;;;;15.13;11.68;;;29.00;56.30;;;;;;1843734;77;21191;-71
2021/12/15 05:53:10;;;;;;;15.28;12.40;;;29.00;55.80;;;;;;1825459;77;21737;-72
2021/12/15 05:55:43;;;;;;;18.10;11.95;;;29.10;55.40;;;;;;1820339;77;21275;-72
2021/12/15 05:58:13;;;;;;;16.62;11.43;;;29.20;55.60;;;;;;1817053;77;21192;-72
2021/12/15 06:00:46;;;;;;;15.75;11.95;;;29.20;55.70;;;;;;1821676;77;21662;-71
2021/12/15 06:03:17;;;;;;;13.20;10.15;;;29.20;54.90;;;;;;1828084;77;21147;-73
2021/12/15 06:05:48;;;;;;;14.80;10.68;;;29.20;54.50;;;;;;1814277;77;21158;-72
2021/12/15 06:08:19;;;;;;;14.43;10.98;;;29.20;54.30;;;;;;1822149;77;21135;-70
2021/12/15 06:10:49;;;;;;;13.48;10.85;;;29.20;54.70;;;;;;1826545;77;21179;-72
2021/12/15 06:13:27;;;;;;;15.98;11.53;;;29.30;55.30;;;;;;1819094;77;21448;-71
2021/12/15 06:15:52;;;;;;;14.47;10.90;;;29.40;54.90;;;;;;1818042;77;21139;-72
2021/12/15 06:18:23;;;;;;;14.68;11.20;;;29.50;55.20;;;;;;1822807;77;21252;-72
2021/12/15 06:20:55;;;;;;;11.53;9.28;;;29.50;55.30;;;;;;1819923;77;21632;-72
2021/12/15 06:23:28;;;;;;;12.05;9.53;;;29.50;54.40;;;;;;1845696;76;21723;-71
2021/12/15 06:26:01;;;;;;;12.95;10.25;;;29.50;54.30;;;;;;1790532;78;21206;-72
2021/12/15 06:28:34;;;;;;;13.65;10.72;;;29.50;54.10;;;;;;1811503;78;21162;-73
2021/12/15 06:31:08;;;;;;;17.90;10.28;;;29.40;54.30;;;;;;1785414;79;21227;-72
2021/12/15 06:33:41;;;;;;;19.85;10.98;;;29.30;54.50;;;;;;1839626;76;21148;-73
2021/12/15 06:36:20;;;;;;;12.33;10.28;;;29.30;54.30;;;;;;1842356;76;21083;-72
2021/12/15 06:38:50;;;;;;;18.62;11.65;;;29.30;54.20;;;;;;1838541;76;21167;-73
2021/12/15 06:41:22;;;;;;;13.53;10.20;;;29.30;54.30;;;;;;1847236;76;21613;-72
2021/12/15 06:43:57;;;;;;;13.72;10.32;;;29.40;55.10;;;;;;1838395;76;21625;-70
2021/12/15 06:59:12;;;;;;;12.90;10.93;;;29.50;54.60;;;;;;1838936;76;21705;-73
2021/12/15 07:01:43;;;;;;;11.85;10.00;;;29.50;55.00;;;;;;1845310;76;21542;-72
2021/12/15 07:04:14;;;;;;;14.05;10.25;;;29.60;54.90;;;;;;1839035;76;21233;-70
2021/12/15 07:06:45;;;;;;;12.73;10.48;;;29.60;55.10;;;;;;1836568;76;21169;-71
2021/12/15 07:09:16;;;;;;;15.03;11.95;;;29.60;55.00;;;;;;1840708;76;21716;-71
2021/12/15 07:11:50;;;;;;;15.58;11.00;;;29.60;55.00;;;;;;1842070;76;21647;-70
2021/12/15 07:14:21;;;;;;;19.98;11.55;;;29.60;54.70;;;;;;1837584;78;21202;-71
2021/12/15 07:16:55;;;;;;;13.48;10.50;;;29.60;54.90;;;;;;1813800;78;21643;-71
2021/12/15 07:22:14;;;;;;;12.73;9.40;;;29.60;55.10;;;;;;1830453;76;21787;-70
2021/12/15 07:24:30;;;;;;;13.43;9.55;;;29.50;54.60;;;;;;1814934;77;21099;-71
2021/12/15 07:27:02;;;;;;;13.78;10.63;;;29.50;55.00;;;;;;1819070;77;21121;-72
2021/12/15 07:29:33;;;;;;;15.15;11.53;;;29.60;54.80;;;;;;1808870;77;21650;-72
2021/12/15 07:32:05;;;;;;;13.38;9.88;;;29.70;55.00;;;;;;1825888;77;21201;-72
2021/12/15 07:34:36;;;;;;;18.42;11.40;;;29.70;55.80;;;;;;1821349;77;21226;-72
2021/12/15 07:37:07;;;;;;;16.73;10.38;;;29.60;54.80;;;;;;1824683;77;21602;-72
2021/12/15 07:39:44;;;;;;;13.22;9.88;;;29.70;55.40;;;;;;1825651;77;21209;-71
2021/12/15 07:42:12;;;;;;;13.80;10.53;;;29.70;55.30;;;;;;1834675;77;21286;-71
2021/12/15 07:44:43;;;;;;;14.35;10.48;;;29.70;55.10;;;;;;1769628;80;21191;-71
2021/12/15 07:47:14;;;;;;;17.12;10.45;;;29.80;55.10;;;;;;1830551;77;21658;-72
2021/12/15 07:49:45;;;;;;;11.78;9.85;;;29.70;55.10;;;;;;1822417;77;21808;-71
2021/12/15 07:52:16;;;;;;;15.83;10.70;;;29.60;55.20;;;;;;1834764;77;21144;-71
2021/12/15 07:54:48;;;;;;;11.73;9.75;;;29.60;55.40;;;;;;1822396;77;21603;-72
2021/12/15 07:57:20;;;;;;;12.88;9.60;;;29.60;55.70;;;;;;1833397;77;21244;-72
2021/12/15 07:59:53;;;;;;;13.00;10.38;;;29.50;55.20;;;;;;1820797;77;21213;-72
2021/12/15 08:02:25;;;;;;;16.60;13.20;;;29.50;55.50;;;;;;1824543;77;21572;-72
2021/12/15 08:04:56;;;;;;;15.45;10.38;;;29.50;55.30;;;;;;1823855;77;21699;-72
2021/12/15 08:07:27;;;;;;;13.28;9.18;;;29.50;55.70;;;;;;1827695;77;21201;-72
2021/12/15 08:09:58;;;;;;;10.28;8.88;;;29.40;55.70;;;;;;1827574;77;21618;-71
2021/12/15 08:12:28;;;;;;;13.08;10.30;;;29.40;56.00;;;;;;1831564;78;21249;-72
2021/12/15 08:14:59;;;;;;;15.18;10.28;;;29.40;55.00;;;;;;1820513;77;21127;-71
2021/12/15 08:17:30;;;;;;;14.05;11.30;;;29.40;55.40;;;;;;1834837;77;21201;-71
2021/12/15 08:20:06;;;;;;;13.10;9.85;;;29.40;55.30;;;;;;1821005;77;21222;-71
2021/12/15 08:22:38;;;;;;;12.13;9.75;;;29.40;55.60;;;;;;1825738;77;21242;-72
2021/12/15 08:25:11;;;;;;;15.95;11.80;;;29.40;55.50;;;;;;1820162;77;21178;-73
2021/12/15 08:27:43;;;;;;;20.35;12.88;;;29.40;55.50;;;;;;1822745;78;21581;-72
2021/12/15 08:30:20;;;;;;;17.23;11.57;;;29.40;55.50;;;;;;1826307;78;21117;-72
2021/12/15 08:32:51;;;;;;;18.05;14.07;;;29.40;55.60;;;;;;1823273;77;21628;-71
2021/12/15 08:35:25;;;;;;;15.25;10.88;;;29.40;55.10;;;;;;1773734;80;21219;-71
2021/12/15 08:37:56;;;;;;;14.68;10.00;;;29.40;55.70;;;;;;1818083;77;21266;-72
2021/12/15 08:40:28;;;;;;;20.20;9.63;;;29.30;55.50;;;;;;1821377;77;21200;-71
2021/12/15 08:42:59;;;;;;;17.60;10.00;;;29.30;55.40;;;;;;1829835;77;21153;-70
2021/12/15 08:45:32;;;;;;;11.95;9.85;;;29.30;55.60;;;;;;1824556;77;21184;-71
2021/12/15 08:48:05;;;;;;;13.80;10.58;;;29.30;55.60;;;;;;1826226;77;21148;-71
2021/12/15 08:50:38;;;;;;;13.03;9.98;;;29.30;56.60;;;;;;1824516;77;21699;-72
2021/12/15 08:53:11;;;;;;;16.10;11.28;;;29.20;55.70;;;;;;1818384;77;21121;-73
2021/12/15 08:55:44;;;;;;;15.50;11.53;;;29.20;56.00;;;;;;1828958;77;21153;-73
2021/12/15 08:58:17;;;;;;;13.98;10.63;;;29.10;56.00;;;;;;1824094;77;21098;-73
2021/12/15 09:00:52;;;;;;;11.83;9.35;;;29.10;55.80;;;;;;1814162;77;21124;-73
2021/12/15 09:03:24;;;;;;;14.28;10.20;;;29.10;55.90;;;;;;1822620;77;21149;-72
2021/12/15 09:05:57;;;;;;;15.78;10.35;;;29.10;55.80;;;;;;1811267;77;21122;-73
2021/12/15 09:08:29;;;;;;;13.10;10.43;;;29.10;55.90;;;;;;1799259;77;21201;-72
2021/12/15 09:11:03;;;;;;;13.03;10.10;;;29.10;56.00;;;;;;1821472;77;21192;-73
2021/12/15 09:13:34;;;;;;;12.58;9.45;;;29.00;55.80;;;;;;1817573;77;21229;-71
2021/12/15 09:16:07;;;;;;;14.90;10.08;;;29.00;55.50;;;;;;1814733;77;21731;-73
2021/12/15 09:18:39;;;;;;;11.40;9.08;;;29.00;56.40;;;;;;1814448;77;21174;-71
2021/12/15 09:21:12;;;;;;;12.70;9.70;;;28.90;55.50;;;;;;1817486;77;21103;-72
2021/12/15 09:23:44;;;;;;;16.15;10.35;;;29.00;55.60;;;;;;1819604;76;21153;-72
2021/12/15 09:26:16;;;;;;;16.55;11.22;;;29.00;55.80;;;;;;1817718;77;21278;-71
2021/12/15 09:28:47;;;;;;;11.28;8.65;;;28.90;55.60;;;;;;1809621;77;21322;-71
2021/12/15 09:31:18;;;;;;;13.08;9.23;;;29.00;55.60;;;;;;1791441;79;21557;-72
2021/12/15 09:33:54;;;;;;;13.53;9.73;;;28.90;55.70;;;;;;1820339;77;21176;-72
2021/12/15 09:36:26;;;;;;;15.03;9.80;;;28.90;55.50;;;;;;1809843;77;21193;-73
2021/12/15 09:38:59;;;;;;;15.25;10.28;;;28.90;55.30;;;;;;1810581;77;21244;-72
2021/12/15 09:41:31;;;;;;;13.95;8.88;;;28.80;55.20;;;;;;1789558;79;21648;-72
2021/12/15 09:44:08;;;;;;;14.87;10.70;;;28.80;55.00;;;;;;1809601;77;21180;-72
2021/12/15 09:47:05;;;;;;;16.12;12.78;;;28.80;55.30;;;;;;1817127;77;21673;-71
2021/12/15 10:12:29;;;;;;;17.05;10.25;;;28.20;56.50;;;;;;1812739;77;21094;-73
2021/12/15 10:19:46;;;;;;;18.32;10.63;;;28.10;56.80;;;;;;1819232;77;21141;-73
2021/12/15 10:22:29;;;;;;;14.87;10.10;;;28.10;56.80;;;;;;1795199;77;21181;-73
2021/12/15 10:24:53;;;;;;;18.27;10.75;;;28.10;56.90;;;;;;1810393;77;21157;-73
2021/12/15 10:27:26;;;;;;;18.32;10.78;;;28.10;56.90;;;;;;1809521;77;21140;-71
2021/12/15 10:30:00;;;;;;;15.85;10.48;;;28.00;57.00;;;;;;1811176;77;21620;-72
2021/12/15 10:32:33;;;;;;;20.85;11.43;;;27.90;57.20;;;;;;1816538;77;21133;-72
2021/12/15 10:35:06;;;;;;;16.73;12.13;;;27.90;57.40;;;;;;1771497;79;21180;-72
2021/12/15 10:37:38;;;;;;;24.60;11.90;;;27.90;57.60;;;;;;1817712;77;21232;-72
2021/12/15 10:40:11;;;;;;;22.40;13.25;;;27.80;57.70;;;;;;1814574;77;21126;-72
2021/12/15 10:42:43;;;;;;;22.55;12.75;;;27.80;57.80;;;;;;1811992;77;21199;-72
2021/12/15 10:45:16;;;;;;;23.45;13.53;;;27.70;58.00;;;;;;1804535;78;21153;-72
2021/12/15 10:47:49;;;;;;;22.87;13.68;;;27.70;58.40;;;;;;1807342;77;21166;-72
2021/12/15 10:50:22;;;;;;;20.27;12.53;;;27.60;58.50;;;;;;1811655;79;21156;-71
2021/12/15 10:52:55;;;;;;;31.87;14.93;;;27.50;58.60;;;;;;1825039;77;21105;-72
2021/12/15 10:55:28;;;;;;;20.77;12.55;;;27.50;58.80;;;;;;1816563;77;21242;-73
2021/12/15 10:58:00;;;;;;;26.40;13.98;;;27.50;59.00;;;;;;1819040;77;21691;-72
2021/12/15 11:00:34;;;;;;;24.15;14.30;;;27.40;59.10;;;;;;1825135;77;21156;-72
2021/12/15 11:03:14;;;;;;;27.05;14.87;;;27.40;59.30;;;;;;1820370;77;21251;-72
2021/12/15 11:05:39;;;;;;;27.52;15.32;;;27.40;59.40;;;;;;1810594;77;21140;-70
2021/12/15 11:08:10;;;;;;;26.75;15.63;;;27.40;59.60;;;;;;1815669;77;21204;-72
2021/12/15 11:10:41;;;;;;;23.18;14.35;;;27.30;59.70;;;;;;1790488;79;21114;-72
2021/12/15 11:13:14;;;;;;;25.75;15.45;;;27.30;59.90;;;;;;1811525;77;21246;-72
2021/12/15 11:15:47;;;;;;;24.02;15.20;;;27.20;60.10;;;;;;1813785;77;21627;-73
2021/12/15 11:18:20;;;;;;;26.65;15.90;;;27.20;60.20;;;;;;1815116;77;21211;-71
2021/12/15 11:20:53;;;;;;;26.23;14.85;;;27.10;60.40;;;;;;1812554;77;21150;-71
2021/12/15 11:23:27;;;;;;;26.25;13.98;;;27.20;60.60;;;;;;1796832;77;21596;-72
2021/12/15 11:25:57;;;;;;;28.38;15.90;;;27.10;60.70;;;;;;1815287;77;21482;-71
2021/12/15 11:28:29;;;;;;;33.08;17.48;;;27.10;60.90;;;;;;1819443;77;21135;-72
2021/12/15 11:31:02;;;;;;;30.62;16.45;;;27.10;61.00;;;;;;1813205;77;21464;-72
2021/12/15 11:33:39;;;;;;;33.88;16.35;;;27.00;61.10;;;;;;1822288;77;21170;-76
2021/12/15 11:36:08;;;;;;;25.50;15.78;;;27.00;61.30;;;;;;1829654;77;21097;-74
2021/12/15 11:38:38;;;;;;;34.30;16.82;;;27.00;61.50;;;;;;1822111;77;21180;-75
2021/12/15 11:41:11;;;;;;;31.70;17.25;;;26.90;61.40;;;;;;1830600;77;21123;-72
2021/12/15 11:43:43;;;;;;;28.77;17.30;;;26.90;61.70;;;;;;1820492;77;22027;-72
2021/12/15 11:46:14;;;;;;;33.18;19.02;;;26.90;61.80;;;;;;1819963;77;21237;-72
2021/12/15 11:48:48;;;;;;;29.92;17.35;;;26.80;61.90;;;;;;1817274;77;21539;-72
2021/12/15 11:51:22;;;;;;;30.77;16.80;;;26.80;62.20;;;;;;1832473;77;21150;-73
2021/12/15 11:53:52;;;;;;;29.75;16.45;;;26.80;62.30;;;;;;1818837;76;21104;-73
2021/12/15 11:56:24;;;;;;;28.07;14.50;;;26.80;62.30;;;;;;1834774;77;21199;-71
2021/12/15 11:58:57;;;;;;;28.23;17.55;;;26.70;63.00;;;;;;1818702;77;21196;-73
2021/12/15 12:01:30;;;;;;;28.95;14.30;;;26.80;62.00;;;;;;1817915;77;21103;-73
2021/12/15 12:04:04;;;;;;;26.55;15.50;;;26.80;61.60;;;;;;1817166;77;21615;-72
2021/12/15 12:06:34;;;;;;;20.17;12.98;;;26.80;61.60;;;;;;1806753;78;21473;-73
2021/12/15 12:09:05;;;;;;;23.35;13.58;;;26.80;61.30;;;;;;1818942;78;21214;-72
2021/12/15 12:11:40;;;;;;;23.25;12.82;;;26.80;61.20;;;;;;1778343;79;21678;-71
2021/12/15 12:14:18;;;;;;;25.68;13.88;;;26.80;61.10;;;;;;1817522;78;21186;-72
2021/12/15 12:16:41;;;;;;;22.22;12.50;;;26.70;60.90;;;;;;1814853;78;21191;-72
2021/12/15 12:19:14;;;;;;;21.97;13.45;;;26.70;61.00;;;;;;1815261;79;21157;-73
2021/12/15 12:21:45;;;;;;;18.62;12.63;;;26.80;62.00;;;;;;1812809;79;21620;-73
2021/12/15 12:24:18;;;;;;;18.23;12.23;;;26.70;61.10;;;;;;1815788;77;21524;-74
2021/12/15 12:26:48;;;;;;;24.65;13.55;;;26.70;61.30;;;;;;1853875;76;21135;-72
2021/12/15 12:29:19;;;;;;;21.27;14.80;;;26.70;61.40;;;;;;1820357;77;21127;-72
2021/12/15 12:31:50;;;;;;;19.80;13.93;;;26.70;61.80;;;;;;1843857;77;22140;-72
2021/12/15 12:34:21;;;;;;;20.30;13.70;;;26.70;62.40;;;;;;1845510;76;21099;-73
2021/12/15 12:36:53;;;;;;;28.67;15.63;;;26.60;61.90;;;;;;1846554;77;21143;-73
2021/12/15 12:39:26;;;;;;;22.37;13.90;;;26.60;62.20;;;;;;1847445;76;21808;-73
2021/12/15 12:41:57;;;;;;;21.33;14.58;;;26.60;62.30;;;;;;1850346;76;21555;-72
2021/12/15 12:44:33;;;;;;;22.27;14.58;;;26.60;62.30;;;;;;1840551;76;21166;-73
2021/12/15 12:47:18;;;;;;;27.07;16.07;;;26.50;63.30;;;;;;1845802;77;21632;-74
2021/12/15 13:00:00;;;;;;;33.42;22.07;;;26.40;62.90;;;;;;1850225;76;21187;-74
2021/12/15 13:05:10;;;;;;;31.23;21.47;;;26.30;62.70;;;;;;1843303;76;21204;-78
2021/12/15 13:07:43;;;;;;;33.85;19.67;;;26.30;62.70;;;;;;1842553;76;21600;-73
2021/12/15 13:10:14;;;;;;;30.20;19.48;;;26.20;62.70;;;;;;1844893;77;21131;-74
2021/12/15 13:12:49;;;;;;;33.15;19.87;;;26.20;63.00;;;;;;1847026;76;21686;-72
2021/12/15 13:15:21;;;;;;;29.15;19.45;;;26.20;63.00;;;;;;1846589;77;21757;-72
2021/12/15 13:17:58;;;;;;;35.95;20.70;;;26.20;63.00;;;;;;1845128;76;21291;-84
2021/12/15 13:20:34;;;;;;;30.48;20.43;;;26.20;63.00;;;;;;1839700;77;21197;-85
2021/12/15 13:30:56;;;;;;;38.00;24.55;;;26.10;63.70;;;;;;1799689;78;21753;-83
2021/12/15 13:33:30;;;;;;;41.53;25.02;;;26.10;64.00;;;;;;1800906;79;21143;-84
2021/12/15 13:36:03;;;;;;;46.73;24.72;;;26.00;64.00;;;;;;1808771;78;22186;-83
2021/12/15 13:38:36;;;;;;;42.33;23.77;;;26.00;64.10;;;;;;1801446;79;21264;-85
2021/12/15 13:41:14;;;;;;;31.10;22.52;;;25.90;64.20;;;;;;1799959;78;21142;-82
2021/12/15 13:43:44;;;;;;;36.50;24.02;;;25.90;64.10;;;;;;1802601;79;21170;-84
2021/12/15 13:46:18;;;;;;;39.18;24.45;;;25.90;64.40;;;;;;1801883;79;21194;-84
2021/12/15 13:48:52;;;;;;;48.78;24.82;;;26.00;64.40;;;;;;1802852;79;21146;-84
2021/12/15 13:51:25;;;;;;;37.03;24.92;;;25.90;64.40;;;;;;1800815;78;21158;-83
2021/12/15 13:53:57;;;;;;;40.80;25.80;;;26.00;64.60;;;;;;1801122;78;21166;-84
2021/12/15 13:56:30;;;;;;;39.75;25.95;;;25.90;64.60;;;;;;1804385;78;21592;-77
2021/12/15 13:59:05;;;;;;;40.30;25.55;;;25.90;64.50;;;;;;1799383;79;21744;-79
2021/12/15 14:01:36;;;;;;;48.73;27.82;;;25.90;64.60;;;;;;1802901;78;21165;-80
2021/12/15 14:04:07;;;;;;;68.52;46.02;;;25.90;64.80;;;;;;1805772;78;21135;-81
2021/12/15 14:06:38;;;;;;;438.80;344.32;;;25.90;65.10;;;;;;1803106;78;21122;-79
2021/12/15 14:09:09;;;;;;;248.80;205.32;;;25.90;65.30;;;;;;1804745;78;21220;-82
2021/12/15 14:11:42;;;;;;;49.48;32.65;;;25.90;65.40;;;;;;1799836;78;21135;-79
2021/12/15 14:14:16;;;;;;;45.45;32.05;;;25.80;65.20;;;;;;1806096;78;21278;-78
2021/12/15 14:16:49;;;;;;;112.97;87.90;;;25.80;65.20;;;;;;1803620;78;21231;-79
2021/12/15 14:19:28;;;;;;;51.58;32.42;;;25.80;65.20;;;;;;1804040;78;21161;-79
2021/12/15 14:21:59;;;;;;;44.53;26.10;;;25.80;65.60;;;;;;1804634;78;21173;-79
2021/12/15 14:24:30;;;;;;;39.92;24.87;;;25.80;65.40;;;;;;1803946;78;21181;-79
2021/12/15 14:27:01;;;;;;;44.95;30.30;;;25.80;65.30;;;;;;1811806;78;21164;-80
2021/12/15 14:29:37;;;;;;;43.58;27.70;;;25.80;65.60;;;;;;1813933;79;21168;-80
2021/12/15 14:32:14;;;;;;;38.30;24.85;;;25.80;65.70;;;;;;1812964;77;21241;-81